Terminal Aerodrome Forecast
Issued by NWS Buffalo, NY

Current Version | Previous Version | Text Only | Print | Product List | Glossary On
Versions: 1 2 3 4 5 6 7 8 9 10 11 12 13 14 15 16 17 18 19 20 21 22 23 24 25 26
000
FTUS41 KBUF 020539
TAFROC
TAF
KROC 020539Z 0206/0306 22008KT P6SM SCT080
     FM021400 24012KT P6SM FEW250
     FM022000 23012G18KT P6SM SCT250
     FM030000 19010KT P6SM BKN140
     FM030400 20010G18KT P6SM BKN140=

USA.gov is the U.S. government's official web portal to all federal, state and local government web resources and services.